createdAt,value
2022-11-10T00:00:23.868Z,98297.91
2022-11-10T00:05:44.479Z,98307.22
2022-11-10T00:11:07.111Z,98303.03
2022-11-10T00:16:46.015Z,98322.22
2022-11-10T00:22:06.181Z,98328.44
2022-11-10T00:27:26.568Z,98330.72
2022-11-10T00:32:48.264Z,98334.25
2022-11-10T00:38:08.619Z,98339.28
2022-11-10T00:43:30.351Z,98337.69
2022-11-10T00:48:51.051Z,98350.13
2022-11-10T00:54:11.637Z,98360.97
2022-11-10T00:59:31.823Z,98360.97
2022-11-10T01:04:52.222Z,98371.03
2022-11-10T01:10:12.663Z,98392.78
2022-11-10T01:15:33.066Z,98390.44
2022-11-10T01:20:53.384Z,98397.03
2022-11-10T01:26:14.699Z,98394.28
2022-11-10T01:31:35.020Z,98408.28
2022-11-10T01:36:55.534Z,98400.06
2022-11-10T01:42:16.141Z,98409.06
2022-11-10T01:47:36.353Z,98409.84
2022-11-10T02:06:35.346Z,98413.06
2022-11-10T02:11:57.208Z,98406.34
2022-11-10T02:17:17.600Z,98414.06
2022-11-10T02:22:38.861Z,98413.66
2022-11-10T02:27:59.234Z,98418.75
2022-11-10T02:33:20.392Z,98429.72
2022-11-10T02:38:41.056Z,98437.59
2022-11-10T02:44:03.056Z,98451.47
2022-11-10T02:49:23.432Z,98459.81
2022-11-10T02:54:43.874Z,98473.00
2022-11-10T03:00:06.035Z,98476.69
2022-11-10T03:05:26.810Z,98492.38
2022-11-10T03:10:46.761Z,98496.09
2022-11-10T03:16:07.276Z,98503.31
2022-11-10T03:21:27.282Z,98518.84
2022-11-10T03:26:47.797Z,98527.53
2022-11-10T03:32:08.271Z,98519.56
2022-11-10T03:37:22.783Z,98529.16
2022-11-10T03:42:44.345Z,98529.03
2022-11-10T03:48:04.428Z,98537.38
2022-11-10T03:53:24.958Z,98549.06
2022-11-10T03:58:45.644Z,98556.78
2022-11-10T04:04:25.872Z,98562.06
2022-11-10T04:09:45.844Z,98569.06
2022-11-10T04:15:25.215Z,98571.50
2022-11-10T04:20:45.631Z,98578.06
2022-11-10T04:26:26.843Z,98585.94
2022-11-10T04:31:47.194Z,98578.41
2022-11-10T04:37:07.347Z,98590.44
2022-11-10T04:42:27.557Z,98597.28
2022-11-10T04:47:48.035Z,98599.13
2022-11-10T04:53:08.593Z,98609.53
2022-11-10T04:58:28.811Z,98612.97
2022-11-10T05:03:50.432Z,98620.41
2022-11-10T05:09:11.155Z,98626.56
2022-11-10T05:14:31.804Z,98642.41
2022-11-10T05:19:52.072Z,98653.44
2022-11-10T05:25:12.853Z,98657.19
2022-11-10T05:30:33.551Z,98662.47
2022-11-10T05:35:53.403Z,98664.72
2022-11-10T05:41:13.663Z,98674.00
2022-11-10T05:46:37.955Z,98670.16
2022-11-10T05:51:58.246Z,98684.97
2022-11-10T05:57:18.670Z,98691.09
2022-11-10T06:02:39.091Z,98704.56
2022-11-10T06:07:59.968Z,98706.66
2022-11-10T06:13:20.690Z,98714.25
2022-11-10T06:18:41.142Z,98721.81
2022-11-10T06:24:01.505Z,98744.69
2022-11-10T06:29:26.571Z,98750.09
2022-11-10T06:34:47.557Z,98763.22
2022-11-10T06:40:10.684Z,98781.78
2022-11-10T06:45:31.333Z,98802.09
2022-11-10T06:50:51.703Z,98819.84
2022-11-10T06:56:12.064Z,98824.22
2022-11-10T07:01:32.609Z,98838.44
2022-11-10T07:06:53.399Z,98837.72
2022-11-10T07:12:13.762Z,98849.06
2022-11-10T07:17:39.865Z,98859.06
2022-11-10T07:23:01.990Z,98869.50
2022-11-10T07:28:27.237Z,98887.91
2022-11-10T07:33:51.918Z,98902.94
2022-11-10T07:39:14.779Z,98909.91
2022-11-10T07:44:35.012Z,98909.00
2022-11-10T07:49:55.660Z,98930.91
2022-11-10T07:55:16.179Z,98925.78
2022-11-10T08:00:37.805Z,98926.00
2022-11-10T08:05:58.524Z,98934.44
2022-11-10T08:11:19.059Z,98948.66
2022-11-10T08:16:39.464Z,98947.63
2022-11-10T08:21:59.977Z,98967.72
2022-11-10T08:27:20.547Z,98977.00
2022-11-10T08:32:41.297Z,98978.78
2022-11-10T08:38:19.755Z,98989.56
2022-11-10T08:43:40.113Z,98990.38
2022-11-10T08:49:00.644Z,98998.91
2022-11-10T08:54:21.441Z,99006.63
2022-11-10T08:59:41.730Z,99009.56
2022-11-10T09:05:02.014Z,99019.63
2022-11-10T09:10:22.468Z,99032.78
2022-11-10T09:15:43.815Z,99038.25
2022-11-10T09:21:04.472Z,99047.94
2022-11-10T09:26:24.544Z,99063.88
2022-11-10T09:31:45.276Z,99060.44
2022-11-10T09:37:05.626Z,99061.41
2022-11-10T09:42:36.930Z,99069.75
2022-11-10T09:48:06.796Z,99073.34
2022-11-10T09:54:21.037Z,99082.97
2022-11-10T09:59:43.475Z,99088.22
2022-11-10T10:05:25.146Z,99105.38
2022-11-10T10:10:57.994Z,99103.22
2022-11-10T10:16:34.244Z,99103.38
2022-11-10T10:22:12.882Z,99099.91
2022-11-10T10:27:38.560Z,99090.75
2022-11-10T10:33:11.794Z,99092.59
2022-11-10T10:38:37.790Z,99109.03
2022-11-10T10:44:01.433Z,99102.38
2022-11-10T10:49:29.068Z,99099.22
2022-11-10T10:55:01.189Z,99095.31
2022-11-10T11:00:23.241Z,99103.75
2022-11-10T11:05:59.484Z,99103.50
2022-11-10T11:11:25.196Z,99097.75
2022-11-10T11:16:49.794Z,99097.28
2022-11-10T11:22:22.002Z,99101.78
2022-11-10T11:27:49.337Z,99113.50
2022-11-10T11:33:22.331Z,99123.06
2022-11-10T11:38:45.527Z,99121.19
2022-11-10T11:44:29.796Z,99114.94
2022-11-10T11:49:56.071Z,99119.53
2022-11-10T11:55:40.424Z,99123.06
2022-11-10T12:01:15.837Z,99121.34
2022-11-10T12:06:55.682Z,99134.00
2022-11-10T12:12:22.057Z,99124.34
2022-11-10T12:18:11.578Z,99128.34
2022-11-10T12:23:46.536Z,99140.94
2022-11-10T12:29:28.078Z,99136.63
2022-11-10T12:34:56.317Z,99145.72
2022-11-10T12:40:19.572Z,99139.25
2022-11-10T12:45:45.575Z,99147.31
2022-11-10T12:51:30.479Z,99138.41
2022-11-10T12:57:03.251Z,99140.16
2022-11-10T13:02:29.384Z,99137.97
2022-11-10T13:07:51.815Z,99141.88
2022-11-10T13:13:17.649Z,99139.72
2022-11-10T13:18:37.878Z,99145.44
2022-11-10T13:24:21.582Z,99150.75
2022-11-10T13:29:48.040Z,99152.75
2022-11-10T13:35:30.260Z,99157.03
2022-11-10T13:40:50.765Z,99170.09
2022-11-10T13:46:11.305Z,99178.94
2022-11-10T13:51:50.805Z,99187.38
2022-11-10T13:57:25.086Z,99190.59
2022-11-10T14:02:55.713Z,99179.09
2022-11-10T14:08:23.797Z,99197.94
2022-11-10T14:13:51.048Z,99196.53
2022-11-10T14:19:13.931Z,99210.38
2022-11-10T14:24:42.725Z,99220.66
2022-11-10T14:30:27.190Z,99218.75
2022-11-10T14:35:49.175Z,99229.56
2022-11-10T14:41:18.026Z,99245.28
2022-11-10T14:46:38.552Z,99263.75
2022-11-10T14:51:59.742Z,99263.25
2022-11-10T14:57:20.261Z,99262.63
2022-11-10T15:02:41.223Z,99262.59
2022-11-10T15:08:04.300Z,99251.34
2022-11-10T15:13:27.476Z,99261.22
2022-11-10T15:18:51.050Z,99272.78
2022-11-10T15:24:11.690Z,99280.44
2022-11-10T15:29:33.442Z,99301.13
2022-11-10T15:34:53.608Z,99306.66
2022-11-10T15:40:31.733Z,99307.66
2022-11-10T15:46:01.192Z,99301.09
2022-11-10T15:51:26.138Z,99322.63
2022-11-10T15:56:47.300Z,99338.19
2022-11-10T16:02:26.228Z,99346.38
2022-11-10T16:07:46.538Z,99346.97
2022-11-10T16:13:10.671Z,99342.81
2022-11-10T16:18:31.889Z,99350.31
2022-11-10T16:23:52.393Z,99364.03
2022-11-10T16:29:15.949Z,99368.81
2022-11-10T16:34:35.943Z,99377.22
2022-11-10T16:39:56.380Z,99379.03
2022-11-10T16:45:19.409Z,99388.69
2022-11-10T16:50:39.650Z,99404.75
2022-11-10T16:56:00.098Z,99394.56
2022-11-10T17:01:23.905Z,99395.22
2022-11-10T17:06:44.622Z,99399.94
2022-11-10T17:12:05.136Z,99402.16
2022-11-10T17:17:25.689Z,99404.44
2022-11-10T17:22:46.537Z,99415.75
2022-11-10T17:28:09.856Z,99414.41
2022-11-10T17:33:29.965Z,99416.22
2022-11-10T17:38:52.124Z,99423.13
2022-11-10T17:44:16.590Z,99435.91
2022-11-10T17:49:37.118Z,99440.44
2022-11-10T17:54:57.488Z,99440.84
2022-11-10T18:00:19.161Z,99431.63
2022-11-10T18:05:39.673Z,99448.28
2022-11-10T18:11:01.356Z,99449.28
2022-11-10T18:16:22.117Z,99449.34
2022-11-10T18:21:42.282Z,99451.72
2022-11-10T18:27:02.723Z,99452.44
2022-11-10T18:32:23.481Z,99456.63
2022-11-10T18:37:44.160Z,99454.00
2022-11-10T18:43:07.661Z,99466.16
2022-11-10T18:48:31.136Z,99467.47
2022-11-10T18:53:55.309Z,99487.50
2022-11-10T18:59:15.828Z,99494.19
2022-11-10T19:04:36.211Z,99485.56
2022-11-10T19:09:57.901Z,99480.31
2022-11-10T19:15:18.621Z,99487.34
2022-11-10T19:20:40.167Z,99482.84
2022-11-10T19:26:27.709Z,99488.94
2022-11-10T19:31:49.425Z,99489.59
2022-11-10T19:37:09.580Z,99494.06
2022-11-10T19:42:29.975Z,99501.09
2022-11-10T19:47:50.559Z,99486.00
2022-11-10T19:53:11.033Z,99489.16
2022-11-10T19:58:31.720Z,99499.50
2022-11-10T20:03:52.286Z,99499.50
2022-11-10T20:09:12.771Z,99505.41
2022-11-10T20:14:33.508Z,99511.44
2022-11-10T20:19:54.304Z,99515.44
2022-11-10T20:25:15.269Z,99514.13
2022-11-10T20:30:36.708Z,99530.28
2022-11-10T20:36:18.931Z,99526.16
2022-11-10T20:41:41.475Z,99544.22
2022-11-10T20:47:02.356Z,99553.81
2022-11-10T20:52:22.982Z,99551.78
2022-11-10T20:57:43.116Z,99538.84
2022-11-10T21:03:03.473Z,99526.25
2022-11-10T21:08:26.370Z,99523.19
2022-11-10T21:13:46.768Z,99518.06
2022-11-10T21:19:07.487Z,99517.13
2022-11-10T21:24:31.041Z,99532.59
2022-11-10T21:29:51.463Z,99529.88
2022-11-10T21:35:11.585Z,99525.44
2022-11-10T21:40:32.773Z,99528.34
2022-11-10T21:46:04.107Z,99533.78
2022-11-10T21:51:24.728Z,99538.09
2022-11-10T21:56:44.960Z,99547.81
2022-11-10T22:02:05.834Z,99554.84
2022-11-10T22:07:26.174Z,99557.72
2022-11-10T22:13:05.165Z,99548.91
2022-11-10T22:18:37.304Z,99547.00
2022-11-10T22:24:16.568Z,99547.44
2022-11-10T22:29:36.983Z,99569.06
2022-11-10T22:34:57.327Z,99578.16
2022-11-10T22:40:36.250Z,99582.00
2022-11-10T22:45:56.364Z,99581.84
2022-11-10T22:51:16.856Z,99571.78
2022-11-10T22:56:37.834Z,99564.75
2022-11-10T23:01:58.091Z,99589.69
2022-11-10T23:07:18.477Z,99574.00
2022-11-10T23:12:38.855Z,99572.44
2022-11-10T23:18:05.304Z,99579.59
2022-11-10T23:23:27.826Z,99567.16
2022-11-10T23:28:48.366Z,99567.03
2022-11-10T23:34:08.505Z,99559.47
2022-11-10T23:39:29.010Z,99571.63
2022-11-10T23:44:49.427Z,99575.47
2022-11-10T23:50:10.190Z,99580.88
2022-11-10T23:55:30.902Z,99587.44
